Hlavní strana
METAR-TAF:

METAR-TAF

Letiště :

Letiště Piešťany

Piešťany, Slovensko

zeměpisná šířka: 48-37-30N, zeměpisná délka: 017-49-43E, výška: 163 m

Aktuální stav počasí

Zpráva byla vytvořena před 18 minutami, v 01:30 UTC
Severovýchodní vítr 6 kt
Teplota 19°C
Vlhkost vzduchu 68%
Tlak 1020 hPa
Viditelnost 10 km a více

METAR: LZPP 190130Z AUTO 04006KT 9999 BKN098/// 19/13 Q1020

Čas: 03:48 (01:48 UTC)

Předpověď počasí

Zpráva byla vytvořena před 8 hodinami a 48 minutami, v 17:00 UTC
Předpověď platná od 18 v 18 UTC do 19 v 03 UTC
Severní vítr 8 kt
Viditelnost 10 km a více
Žádná oblačnost pod 1500 m, nevyskytují se cumulonimby.
Změna
od 18 v 21 UTC do 18 v 23 UTC
Severoseverovýchodní vítr 4 kt

TAF: LZPP 181700Z 1818/1903 01008KT CAVOK BECMG 1821/1823 03004KT

Stav a předpovědi počasí z více než 4 000 letišť (zprávy METAR a TAF).

Červené a žluté tečky na mapě představují dostupné meteorologické stanice.

Když kurzor umístíte na tečku, zobrazí se název stanice.

Pak kliknutím zobrazíte stav a předpověď počasí.

Chcete-li změnit mapu, kliknutím na zelené tlačítko se znaménkem +mapu přiblížíte, kliknutím na zelené tlačítko se znaménkem – mapu oddálíte a kliknutím na zelené šipky přejdete na sousední mapy.


METAR-TAF: